Accueil
METAR-TAF:

METAR-TAF

Aéroports :

Aéroport de Lahr

Lahr, Allemagne

latitude: 48-22-09N, longitude: 007-49-40E, altitude: 156 m

Observation

Le bulletin a été fait il y a 13 minutes, à 09:20 UTC
Vent 3 kt de direction variable
Température 17°C
Humidité 55%
Pression 1014 hPa
Visibilité 10 km ou plus
pas de nuages en-dessous de 1500 mètres et pas de cumulonimbus.

METAR: EDTL 150920Z VRB03KT CAVOK 17/08 Q1014

Heure: 11:33 (09:33 UTC)

Prévision

Le bulletin a été fait il y a 1 heure et 33 minutes, à 08:00 UTC
Prévision valable du 15 à 09 UTC au 15 à 18 UTC
Vent 2 kt de direction variable
Visibilité 10 km ou plus
pas de nuages en-dessous de 1500 mètres et pas de cumulonimbus.
Evoluant progressivement
du 15 à 10 UTC au 15 à 12 UTC
Vent 5 kt de nord

TAF: EDTL 150800Z 1509/1518 VRB02KT CAVOK BECMG 1510/1512 01005KT

Observations et prévisions météorologiques de plus de 4000 aéroports (messages METAR et TAF).

Les stations disponibles sont représentées par des disques jaunes et rouges sur la carte.

Passer la souris dessus pour voir le nom de la station.

Cliquer dessus pour voir les observations et prévisions météorologiques.

Pour changer de carte: cliquez sur les boutons verts avec une croix noire pour zoomer, sur le bouton vert avec un tiret pour effectuer un zoom arrière, ou sur les flèches vertes pour les cartes adjacentes.


METAR-TAF: